sensor_id;sensor_type;location;lat;lon;timestamp;P1;durP1;ratioP1;P2;durP2;ratioP2
34960;SDS011;30789;52.030;7.110;2023-03-01T00:00:48;6.38;;;4.80;;
34960;SDS011;30789;52.030;7.110;2023-03-01T00:03:14;7.15;;;5.05;;
34960;SDS011;30789;52.030;7.110;2023-03-01T00:05:44;6.72;;;4.68;;
34960;SDS011;30789;52.030;7.110;2023-03-01T00:08:11;6.82;;;4.70;;
34960;SDS011;30789;52.030;7.110;2023-03-01T00:10:37;10.60;;;4.47;;
34960;SDS011;30789;52.030;7.110;2023-03-01T00:13:03;8.50;;;5.20;;
34960;SDS011;30789;52.030;7.110;2023-03-01T00:15:30;7.25;;;5.25;;
34960;SDS011;30789;52.030;7.110;2023-03-01T00:17:56;7.63;;;4.25;;
34960;SDS011;30789;52.030;7.110;2023-03-01T00:20:22;7.10;;;4.75;;
34960;SDS011;30789;52.030;7.110;2023-03-01T00:22:50;7.55;;;4.70;;
34960;SDS011;30789;52.030;7.110;2023-03-01T00:25:16;5.22;;;3.95;;
34960;SDS011;30789;52.030;7.110;2023-03-01T00:27:42;7.72;;;4.25;;
34960;SDS011;30789;52.030;7.110;2023-03-01T00:30:09;8.27;;;3.95;;
34960;SDS011;30789;52.030;7.110;2023-03-01T00:32:36;6.43;;;4.50;;
34960;SDS011;30789;52.030;7.110;2023-03-01T00:35:02;5.63;;;3.85;;
34960;SDS011;30789;52.030;7.110;2023-03-01T00:37:30;5.10;;;3.70;;
34960;SDS011;30789;52.030;7.110;2023-03-01T00:39:58;7.22;;;4.05;;
34960;SDS011;30789;52.030;7.110;2023-03-01T00:42:24;6.50;;;4.38;;
34960;SDS011;30789;52.030;7.110;2023-03-01T00:44:50;6.85;;;4.70;;
34960;SDS011;30789;52.030;7.110;2023-03-01T00:47:17;8.88;;;4.55;;
34960;SDS011;30789;52.030;7.110;2023-03-01T00:49:43;7.28;;;4.40;;
34960;SDS011;30789;52.030;7.110;2023-03-01T00:52:09;5.72;;;4.22;;
34960;SDS011;30789;52.030;7.110;2023-03-01T00:54:36;7.00;;;4.55;;
34960;SDS011;30789;52.030;7.110;2023-03-01T00:57:03;9.48;;;4.65;;
34960;SDS011;30789;52.030;7.110;2023-03-01T00:59:30;6.90;;;4.20;;
34960;SDS011;30789;52.030;7.110;2023-03-01T01:01:56;5.60;;;3.97;;
34960;SDS011;30789;52.030;7.110;2023-03-01T01:04:24;7.68;;;4.63;;
34960;SDS011;30789;52.030;7.110;2023-03-01T01:06:50;7.93;;;4.70;;
34960;SDS011;30789;52.030;7.110;2023-03-01T01:09:17;7.95;;;4.63;;
34960;SDS011;30789;52.030;7.110;2023-03-01T01:11:43;7.43;;;3.97;;
34960;SDS011;30789;52.030;7.110;2023-03-01T01:14:11;6.28;;;4.53;;
34960;SDS011;30789;52.030;7.110;2023-03-01T01:16:37;8.40;;;4.55;;
34960;SDS011;30789;52.030;7.110;2023-03-01T01:19:04;7.55;;;4.80;;
34960;SDS011;30789;52.030;7.110;2023-03-01T01:21:30;7.63;;;4.15;;
34960;SDS011;30789;52.030;7.110;2023-03-01T01:23:57;7.38;;;4.85;;
34960;SDS011;30789;52.030;7.110;2023-03-01T01:26:24;6.97;;;4.88;;
34960;SDS011;30789;52.030;7.110;2023-03-01T01:28:51;7.22;;;4.50;;
34960;SDS011;30789;52.030;7.110;2023-03-01T01:31:18;9.77;;;4.53;;
34960;SDS011;30789;52.030;7.110;2023-03-01T01:33:45;8.15;;;4.70;;
34960;SDS011;30789;52.030;7.110;2023-03-01T01:36:11;7.32;;;4.15;;
34960;SDS011;30789;52.030;7.110;2023-03-01T01:38:38;6.35;;;3.70;;
34960;SDS011;30789;52.030;7.110;2023-03-01T01:41:04;7.43;;;4.25;;
34960;SDS011;30789;52.030;7.110;2023-03-01T01:43:33;7.78;;;4.75;;
34960;SDS011;30789;52.030;7.110;2023-03-01T01:45:59;6.00;;;3.97;;
34960;SDS011;30789;52.030;7.110;2023-03-01T01:48:28;8.60;;;4.10;;
34960;SDS011;30789;52.030;7.110;2023-03-01T01:51:05;6.28;;;4.30;;
34960;SDS011;30789;52.030;7.110;2023-03-01T01:53:32;6.97;;;4.68;;
34960;SDS011;30789;52.030;7.110;2023-03-01T01:55:59;4.40;;;3.67;;
34960;SDS011;30789;52.030;7.110;2023-03-01T01:58:26;5.47;;;3.78;;
34960;SDS011;30789;52.030;7.110;2023-03-01T02:00:54;4.95;;;3.45;;
34960;SDS011;30789;52.030;7.110;2023-03-01T02:03:22;7.82;;;3.80;;
34960;SDS011;30789;52.030;7.110;2023-03-01T02:05:51;5.80;;;3.78;;
34960;SDS011;30789;52.030;7.110;2023-03-01T02:08:19;3.95;;;3.03;;
34960;SDS011;30789;52.030;7.110;2023-03-01T02:10:47;5.63;;;4.25;;
34960;SDS011;30789;52.030;7.110;2023-03-01T02:13:14;5.22;;;4.03;;
34960;SDS011;30789;52.030;7.110;2023-03-01T02:15:40;3.58;;;2.85;;
34960;SDS011;30789;52.030;7.110;2023-03-01T02:18:08;6.95;;;3.75;;
34960;SDS011;30789;52.030;7.110;2023-03-01T02:20:38;4.03;;;3.42;;
34960;SDS011;30789;52.030;7.110;2023-03-01T02:23:06;6.03;;;3.60;;
34960;SDS011;30789;52.030;7.110;2023-03-01T02:25:35;5.55;;;3.45;;
34960;SDS011;30789;52.030;7.110;2023-03-01T02:28:05;6.67;;;3.93;;
34960;SDS011;30789;52.030;7.110;2023-03-01T02:30:34;5.07;;;3.72;;
34960;SDS011;30789;52.030;7.110;2023-03-01T02:33:00;4.60;;;3.55;;
34960;SDS011;30789;52.030;7.110;2023-03-01T02:35:27;5.63;;;4.07;;
34960;SDS011;30789;52.030;7.110;2023-03-01T02:37:55;6.82;;;3.80;;
34960;SDS011;30789;52.030;7.110;2023-03-01T02:40:22;5.63;;;3.45;;
34960;SDS011;30789;52.030;7.110;2023-03-01T02:42:49;4.88;;;3.45;;
34960;SDS011;30789;52.030;7.110;2023-03-01T02:45:16;5.78;;;3.50;;
34960;SDS011;30789;52.030;7.110;2023-03-01T02:47:44;5.50;;;3.38;;
34960;SDS011;30789;52.030;7.110;2023-03-01T02:50:12;4.63;;;2.72;;
34960;SDS011;30789;52.030;7.110;2023-03-01T02:52:41;5.07;;;3.75;;
34960;SDS011;30789;52.030;7.110;2023-03-01T02:55:11;3.65;;;2.97;;
34960;SDS011;30789;52.030;7.110;2023-03-01T02:57:38;5.78;;;3.25;;
34960;SDS011;30789;52.030;7.110;2023-03-01T03:00:06;5.68;;;3.38;;
34960;SDS011;30789;52.030;7.110;2023-03-01T03:02:33;5.80;;;3.05;;
34960;SDS011;30789;52.030;7.110;2023-03-01T03:05:08;5.18;;;3.28;;
34960;SDS011;30789;52.030;7.110;2023-03-01T03:07:35;5.40;;;2.90;;
34960;SDS011;30789;52.030;7.110;2023-03-01T03:10:02;4.70;;;3.05;;
34960;SDS011;30789;52.030;7.110;2023-03-01T03:12:29;5.93;;;3.42;;
34960;SDS011;30789;52.030;7.110;2023-03-01T03:14:55;5.68;;;3.47;;
34960;SDS011;30789;52.030;7.110;2023-03-01T03:17:22;5.40;;;3.42;;
34960;SDS011;30789;52.030;7.110;2023-03-01T03:19:48;4.20;;;3.00;;
34960;SDS011;30789;52.030;7.110;2023-03-01T03:22:16;8.63;;;4.20;;
34960;SDS011;30789;52.030;7.110;2023-03-01T03:24:42;6.03;;;3.75;;
34960;SDS011;30789;52.030;7.110;2023-03-01T03:27:08;8.20;;;4.28;;
34960;SDS011;30789;52.030;7.110;2023-03-01T03:29:34;8.65;;;4.22;;
34960;SDS011;30789;52.030;7.110;2023-03-01T03:32:01;5.85;;;3.60;;
34960;SDS011;30789;52.030;7.110;2023-03-01T03:34:28;6.15;;;3.75;;
34960;SDS011;30789;52.030;7.110;2023-03-01T03:36:55;6.40;;;3.80;;
34960;SDS011;30789;52.030;7.110;2023-03-01T03:39:26;4.32;;;3.38;;
34960;SDS011;30789;52.030;7.110;2023-03-01T03:41:52;3.97;;;3.35;;
34960;SDS011;30789;52.030;7.110;2023-03-01T03:44:19;7.35;;;3.10;;
34960;SDS011;30789;52.030;7.110;2023-03-01T03:46:45;5.47;;;3.42;;
34960;SDS011;30789;52.030;7.110;2023-03-01T03:49:11;4.10;;;3.25;;
34960;SDS011;30789;52.030;7.110;2023-03-01T03:51:37;3.75;;;3.35;;
34960;SDS011;30789;52.030;7.110;2023-03-01T03:54:04;4.15;;;3.70;;
34960;SDS011;30789;52.030;7.110;2023-03-01T03:56:31;4.70;;;3.55;;
34960;SDS011;30789;52.030;7.110;2023-03-01T03:58:57;4.10;;;3.55;;
34960;SDS011;30789;52.030;7.110;2023-03-01T04:01:25;4.32;;;3.17;;
34960;SDS011;30789;52.030;7.110;2023-03-01T04:03:51;5.68;;;2.67;;
34960;SDS011;30789;52.030;7.110;2023-03-01T04:06:19;4.25;;;3.10;;
34960;SDS011;30789;52.030;7.110;2023-03-01T04:08:45;4.68;;;2.67;;
34960;SDS011;30789;52.030;7.110;2023-03-01T04:11:11;4.32;;;3.03;;
34960;SDS011;30789;52.030;7.110;2023-03-01T04:13:55;6.63;;;2.90;;
34960;SDS011;30789;52.030;7.110;2023-03-01T04:16:22;5.18;;;3.22;;
34960;SDS011;30789;52.030;7.110;2023-03-01T04:18:48;8.25;;;3.20;;
34960;SDS011;30789;52.030;7.110;2023-03-01T04:21:15;4.22;;;3.40;;
34960;SDS011;30789;52.030;7.110;2023-03-01T04:23:41;5.85;;;3.05;;
34960;SDS011;30789;52.030;7.110;2023-03-01T04:26:07;4.93;;;3.55;;
34960;SDS011;30789;52.030;7.110;2023-03-01T04:28:34;5.97;;;2.88;;
34960;SDS011;30789;52.030;7.110;2023-03-01T04:31:04;7.07;;;3.78;;
34960;SDS011;30789;52.030;7.110;2023-03-01T04:33:37;5.00;;;3.40;;
34960;SDS011;30789;52.030;7.110;2023-03-01T04:36:04;5.80;;;3.72;;
34960;SDS011;30789;52.030;7.110;2023-03-01T04:38:31;5.05;;;3.50;;
34960;SDS011;30789;52.030;7.110;2023-03-01T04:40:58;5.57;;;3.83;;
34960;SDS011;30789;52.030;7.110;2023-03-01T04:43:25;6.35;;;4.53;;
34960;SDS011;30789;52.030;7.110;2023-03-01T04:45:51;4.65;;;4.13;;
34960;SDS011;30789;52.030;7.110;2023-03-01T04:48:19;5.28;;;3.97;;
34960;SDS011;30789;52.030;7.110;2023-03-01T04:50:45;6.65;;;3.75;;
34960;SDS011;30789;52.030;7.110;2023-03-01T04:53:11;4.68;;;3.55;;
34960;SDS011;30789;52.030;7.110;2023-03-01T04:55:37;7.30;;;4.45;;
34960;SDS011;30789;52.030;7.110;2023-03-01T04:58:04;13.98;;;7.90;;
34960;SDS011;30789;52.030;7.110;2023-03-01T05:00:30;12.80;;;7.10;;
34960;SDS011;30789;52.030;7.110;2023-03-01T05:02:57;14.15;;;6.93;;
34960;SDS011;30789;52.030;7.110;2023-03-01T05:05:26;16.05;;;7.38;;
34960;SDS011;30789;52.030;7.110;2023-03-01T05:07:53;12.95;;;6.80;;
34960;SDS011;30789;52.030;7.110;2023-03-01T05:10:20;9.93;;;6.57;;
34960;SDS011;30789;52.030;7.110;2023-03-01T05:12:46;11.07;;;5.85;;
34960;SDS011;30789;52.030;7.110;2023-03-01T05:15:12;10.00;;;5.63;;
34960;SDS011;30789;52.030;7.110;2023-03-01T05:17:39;6.50;;;4.68;;
34960;SDS011;30789;52.030;7.110;2023-03-01T05:20:05;8.48;;;5.15;;
34960;SDS011;30789;52.030;7.110;2023-03-01T05:22:35;7.72;;;5.20;;
34960;SDS011;30789;52.030;7.110;2023-03-01T05:25:02;7.13;;;5.28;;
34960;SDS011;30789;52.030;7.110;2023-03-01T05:27:28;10.27;;;5.78;;
34960;SDS011;30789;52.030;7.110;2023-03-01T05:29:55;6.85;;;5.07;;
34960;SDS011;30789;52.030;7.110;2023-03-01T05:32:21;7.22;;;5.32;;
34960;SDS011;30789;52.030;7.110;2023-03-01T05:34:47;12.02;;;5.30;;
34960;SDS011;30789;52.030;7.110;2023-03-01T05:37:13;9.18;;;5.32;;
34960;SDS011;30789;52.030;7.110;2023-03-01T05:39:41;6.88;;;4.72;;
34960;SDS011;30789;52.030;7.110;2023-03-01T05:42:09;10.13;;;5.28;;
34960;SDS011;30789;52.030;7.110;2023-03-01T05:44:36;9.88;;;5.28;;
34960;SDS011;30789;52.030;7.110;2023-03-01T05:47:02;11.02;;;6.63;;
34960;SDS011;30789;52.030;7.110;2023-03-01T05:49:29;9.55;;;6.18;;
34960;SDS011;30789;52.030;7.110;2023-03-01T05:51:55;7.50;;;5.07;;
34960;SDS011;30789;52.030;7.110;2023-03-01T05:54:21;5.47;;;4.18;;
34960;SDS011;30789;52.030;7.110;2023-03-01T05:56:49;7.47;;;4.43;;
34960;SDS011;30789;52.030;7.110;2023-03-01T05:59:15;8.50;;;4.43;;
34960;SDS011;30789;52.030;7.110;2023-03-01T06:01:42;5.65;;;4.97;;
34960;SDS011;30789;52.030;7.110;2023-03-01T06:04:08;8.13;;;5.50;;
34960;SDS011;30789;52.030;7.110;2023-03-01T06:06:34;6.93;;;3.70;;
34960;SDS011;30789;52.030;7.110;2023-03-01T06:09:02;5.85;;;4.43;;
34960;SDS011;30789;52.030;7.110;2023-03-01T06:11:28;5.35;;;4.15;;
34960;SDS011;30789;52.030;7.110;2023-03-01T06:13:56;6.65;;;4.32;;
34960;SDS011;30789;52.030;7.110;2023-03-01T06:16:22;5.93;;;3.72;;
34960;SDS011;30789;52.030;7.110;2023-03-01T06:18:49;7.95;;;5.00;;
34960;SDS011;30789;52.030;7.110;2023-03-01T06:21:15;14.60;;;5.03;;
34960;SDS011;30789;52.030;7.110;2023-03-01T06:23:41;7.00;;;4.65;;
34960;SDS011;30789;52.030;7.110;2023-03-01T06:26:07;8.50;;;4.53;;
34960;SDS011;30789;52.030;7.110;2023-03-01T06:28:34;6.45;;;4.03;;
34960;SDS011;30789;52.030;7.110;2023-03-01T06:31:01;8.57;;;5.75;;
34960;SDS011;30789;52.030;7.110;2023-03-01T06:33:28;7.43;;;4.30;;
34960;SDS011;30789;52.030;7.110;2023-03-01T06:35:54;6.30;;;3.90;;
34960;SDS011;30789;52.030;7.110;2023-03-01T06:38:21;7.38;;;4.68;;
34960;SDS011;30789;52.030;7.110;2023-03-01T06:40:51;7.20;;;4.75;;
34960;SDS011;30789;52.030;7.110;2023-03-01T06:43:17;9.10;;;4.78;;
34960;SDS011;30789;52.030;7.110;2023-03-01T06:45:43;7.97;;;4.85;;
34960;SDS011;30789;52.030;7.110;2023-03-01T06:48:12;7.05;;;4.93;;
34960;SDS011;30789;52.030;7.110;2023-03-01T06:50:38;8.70;;;5.28;;
34960;SDS011;30789;52.030;7.110;2023-03-01T06:53:04;6.30;;;4.50;;
34960;SDS011;30789;52.030;7.110;2023-03-01T06:55:31;9.40;;;4.97;;
34960;SDS011;30789;52.030;7.110;2023-03-01T06:57:58;13.73;;;6.22;;
34960;SDS011;30789;52.030;7.110;2023-03-01T07:00:24;9.55;;;4.45;;
34960;SDS011;30789;52.030;7.110;2023-03-01T07:02:51;9.35;;;4.32;;
34960;SDS011;30789;52.030;7.110;2023-03-01T07:05:19;9.45;;;4.85;;
34960;SDS011;30789;52.030;7.110;2023-03-01T07:07:45;7.65;;;4.50;;
34960;SDS011;30789;52.030;7.110;2023-03-01T07:10:12;8.63;;;4.30;;
34960;SDS011;30789;52.030;7.110;2023-03-01T07:12:38;11.38;;;4.32;;
34960;SDS011;30789;52.030;7.110;2023-03-01T07:15:07;5.72;;;3.33;;
34960;SDS011;30789;52.030;7.110;2023-03-01T07:17:34;11.27;;;4.50;;
34960;SDS011;30789;52.030;7.110;2023-03-01T07:20:00;10.25;;;5.35;;
34960;SDS011;30789;52.030;7.110;2023-03-01T07:22:28;8.38;;;4.03;;
34960;SDS011;30789;52.030;7.110;2023-03-01T07:24:54;5.53;;;4.32;;
34960;SDS011;30789;52.030;7.110;2023-03-01T07:27:20;6.05;;;4.25;;
34960;SDS011;30789;52.030;7.110;2023-03-01T07:29:47;7.95;;;3.90;;
34960;SDS011;30789;52.030;7.110;2023-03-01T07:32:13;7.93;;;4.30;;
34960;SDS011;30789;52.030;7.110;2023-03-01T07:34:39;5.90;;;3.80;;
34960;SDS011;30789;52.030;7.110;2023-03-01T07:37:05;5.68;;;3.90;;
34960;SDS011;30789;52.030;7.110;2023-03-01T07:39:33;5.63;;;3.75;;
34960;SDS011;30789;52.030;7.110;2023-03-01T07:41:59;8.38;;;4.28;;
34960;SDS011;30789;52.030;7.110;2023-03-01T07:44:26;6.35;;;4.38;;
34960;SDS011;30789;52.030;7.110;2023-03-01T07:46:53;8.80;;;4.30;;
34960;SDS011;30789;52.030;7.110;2023-03-01T07:49:21;5.22;;;4.05;;
34960;SDS011;30789;52.030;7.110;2023-03-01T07:51:47;5.78;;;4.47;;
34960;SDS011;30789;52.030;7.110;2023-03-01T07:54:14;9.07;;;4.35;;
34960;SDS011;30789;52.030;7.110;2023-03-01T07:56:41;6.38;;;4.30;;
34960;SDS011;30789;52.030;7.110;2023-03-01T07:59:07;6.95;;;4.95;;
34960;SDS011;30789;52.030;7.110;2023-03-01T08:01:34;6.55;;;4.63;;
34960;SDS011;30789;52.030;7.110;2023-03-01T08:04:00;5.93;;;4.65;;
34960;SDS011;30789;52.030;7.110;2023-03-01T08:06:26;6.93;;;4.32;;
34960;SDS011;30789;52.030;7.110;2023-03-01T08:08:53;7.85;;;4.53;;
34960;SDS011;30789;52.030;7.110;2023-03-01T08:11:20;6.57;;;4.05;;
34960;SDS011;30789;52.030;7.110;2023-03-01T08:13:48;6.72;;;4.47;;
34960;SDS011;30789;52.030;7.110;2023-03-01T08:16:15;7.38;;;5.15;;
34960;SDS011;30789;52.030;7.110;2023-03-01T08:18:41;7.65;;;4.68;;
34960;SDS011;30789;52.030;7.110;2023-03-01T08:21:08;6.78;;;4.45;;
34960;SDS011;30789;52.030;7.110;2023-03-01T08:23:34;6.72;;;4.72;;
34960;SDS011;30789;52.030;7.110;2023-03-01T08:26:05;9.00;;;4.60;;
34960;SDS011;30789;52.030;7.110;2023-03-01T08:28:32;8.77;;;5.85;;
34960;SDS011;30789;52.030;7.110;2023-03-01T08:31:00;9.93;;;6.40;;
34960;SDS011;30789;52.030;7.110;2023-03-01T08:33:26;9.70;;;5.13;;
34960;SDS011;30789;52.030;7.110;2023-03-01T08:35:52;7.38;;;5.15;;
34960;SDS011;30789;52.030;7.110;2023-03-01T08:38:18;8.07;;;5.47;;
34960;SDS011;30789;52.030;7.110;2023-03-01T08:40:45;9.23;;;5.15;;
34960;SDS011;30789;52.030;7.110;2023-03-01T08:43:11;7.40;;;4.90;;
34960;SDS011;30789;52.030;7.110;2023-03-01T08:45:37;10.73;;;4.85;;
34960;SDS011;30789;52.030;7.110;2023-03-01T08:48:05;7.40;;;5.45;;
34960;SDS011;30789;52.030;7.110;2023-03-01T08:50:31;7.15;;;4.88;;
34960;SDS011;30789;52.030;7.110;2023-03-01T08:52:57;12.73;;;5.50;;
34960;SDS011;30789;52.030;7.110;2023-03-01T08:55:24;8.45;;;5.43;;
34960;SDS011;30789;52.030;7.110;2023-03-01T08:57:50;9.43;;;5.60;;
34960;SDS011;30789;52.030;7.110;2023-03-01T09:00:16;8.13;;;4.72;;
34960;SDS011;30789;52.030;7.110;2023-03-01T09:02:43;8.75;;;5.00;;
34960;SDS011;30789;52.030;7.110;2023-03-01T09:05:10;8.68;;;5.35;;
34960;SDS011;30789;52.030;7.110;2023-03-01T09:07:37;10.40;;;4.95;;
34960;SDS011;30789;52.030;7.110;2023-03-01T09:10:03;9.48;;;4.93;;
34960;SDS011;30789;52.030;7.110;2023-03-01T09:12:30;7.72;;;5.40;;
34960;SDS011;30789;52.030;7.110;2023-03-01T09:14:56;11.30;;;5.88;;
34960;SDS011;30789;52.030;7.110;2023-03-01T09:17:22;11.10;;;5.07;;
34960;SDS011;30789;52.030;7.110;2023-03-01T09:19:48;8.80;;;5.97;;
34960;SDS011;30789;52.030;7.110;2023-03-01T09:22:16;10.90;;;5.35;;
34960;SDS011;30789;52.030;7.110;2023-03-01T09:24:43;7.13;;;4.82;;
34960;SDS011;30789;52.030;7.110;2023-03-01T09:27:09;12.13;;;5.40;;
34960;SDS011;30789;52.030;7.110;2023-03-01T09:29:37;6.43;;;4.07;;
34960;SDS011;30789;52.030;7.110;2023-03-01T09:32:04;7.93;;;5.43;;
34960;SDS011;30789;52.030;7.110;2023-03-01T09:34:31;9.50;;;5.20;;
34960;SDS011;30789;52.030;7.110;2023-03-01T09:37:25;11.90;;;5.78;;
34960;SDS011;30789;52.030;7.110;2023-03-01T09:39:52;10.10;;;5.25;;
34960;SDS011;30789;52.030;7.110;2023-03-01T09:42:18;9.23;;;6.00;;
34960;SDS011;30789;52.030;7.110;2023-03-01T09:44:45;10.90;;;5.18;;
34960;SDS011;30789;52.030;7.110;2023-03-01T09:47:16;10.52;;;5.80;;
34960;SDS011;30789;52.030;7.110;2023-03-01T09:49:43;7.10;;;5.00;;
34960;SDS011;30789;52.030;7.110;2023-03-01T09:52:16;11.85;;;6.82;;
34960;SDS011;30789;52.030;7.110;2023-03-01T09:54:47;13.27;;;7.07;;
34960;SDS011;30789;52.030;7.110;2023-03-01T09:57:17;11.05;;;7.20;;
34960;SDS011;30789;52.030;7.110;2023-03-01T09:59:48;12.00;;;6.60;;
34960;SDS011;30789;52.030;7.110;2023-03-01T10:02:21;11.10;;;6.95;;
34960;SDS011;30789;52.030;7.110;2023-03-01T10:04:50;13.88;;;7.47;;
34960;SDS011;30789;52.030;7.110;2023-03-01T10:07:20;9.15;;;5.95;;
34960;SDS011;30789;52.030;7.110;2023-03-01T10:09:49;9.43;;;5.80;;
34960;SDS011;30789;52.030;7.110;2023-03-01T10:12:16;10.80;;;6.68;;
34960;SDS011;30789;52.030;7.110;2023-03-01T10:14:44;8.93;;;5.80;;
34960;SDS011;30789;52.030;7.110;2023-03-01T10:17:13;9.95;;;5.85;;
34960;SDS011;30789;52.030;7.110;2023-03-01T10:19:42;11.57;;;6.47;;
34960;SDS011;30789;52.030;7.110;2023-03-01T10:22:11;9.52;;;6.28;;
34960;SDS011;30789;52.030;7.110;2023-03-01T10:24:39;8.68;;;6.28;;
34960;SDS011;30789;52.030;7.110;2023-03-01T10:27:07;10.77;;;6.32;;
34960;SDS011;30789;52.030;7.110;2023-03-01T10:29:37;8.73;;;6.03;;
34960;SDS011;30789;52.030;7.110;2023-03-01T10:32:05;8.88;;;6.40;;
34960;SDS011;30789;52.030;7.110;2023-03-01T10:34:32;14.75;;;7.13;;
34960;SDS011;30789;52.030;7.110;2023-03-01T10:37:01;8.70;;;6.30;;
34960;SDS011;30789;52.030;7.110;2023-03-01T10:39:33;9.65;;;5.97;;
34960;SDS011;30789;52.030;7.110;2023-03-01T10:42:00;10.95;;;6.03;;
34960;SDS011;30789;52.030;7.110;2023-03-01T10:44:36;9.30;;;6.03;;
34960;SDS011;30789;52.030;7.110;2023-03-01T10:47:02;8.70;;;5.43;;
34960;SDS011;30789;52.030;7.110;2023-03-01T10:49:29;9.57;;;6.18;;
34960;SDS011;30789;52.030;7.110;2023-03-01T10:51:55;9.18;;;5.60;;
34960;SDS011;30789;52.030;7.110;2023-03-01T10:54:22;8.70;;;6.03;;
34960;SDS011;30789;52.030;7.110;2023-03-01T10:56:50;9.70;;;6.03;;
34960;SDS011;30789;52.030;7.110;2023-03-01T10:59:25;9.52;;;6.95;;
34960;SDS011;30789;52.030;7.110;2023-03-01T11:02:07;11.05;;;6.40;;
34960;SDS011;30789;52.030;7.110;2023-03-01T11:04:39;8.82;;;5.93;;
34960;SDS011;30789;52.030;7.110;2023-03-01T11:07:07;9.25;;;6.35;;
34960;SDS011;30789;52.030;7.110;2023-03-01T11:09:33;9.52;;;5.88;;
34960;SDS011;30789;52.030;7.110;2023-03-01T11:12:03;10.45;;;5.72;;
34960;SDS011;30789;52.030;7.110;2023-03-01T11:14:32;9.63;;;6.28;;
34960;SDS011;30789;52.030;7.110;2023-03-01T11:17:00;8.80;;;5.85;;
34960;SDS011;30789;52.030;7.110;2023-03-01T11:19:28;10.52;;;6.25;;
34960;SDS011;30789;52.030;7.110;2023-03-01T11:21:59;11.82;;;7.38;;
34960;SDS011;30789;52.030;7.110;2023-03-01T11:26:53;13.15;;;7.57;;
34960;SDS011;30789;52.030;7.110;2023-03-01T11:29:23;13.23;;;9.48;;
34960;SDS011;30789;52.030;7.110;2023-03-01T11:31:52;17.67;;;9.88;;
34960;SDS011;30789;52.030;7.110;2023-03-01T11:34:19;13.07;;;7.57;;
34960;SDS011;30789;52.030;7.110;2023-03-01T11:36:49;10.40;;;6.72;;
34960;SDS011;30789;52.030;7.110;2023-03-01T11:39:21;10.13;;;6.40;;
34960;SDS011;30789;52.030;7.110;2023-03-01T11:41:50;8.50;;;6.70;;
34960;SDS011;30789;52.030;7.110;2023-03-01T11:44:20;13.73;;;7.30;;
34960;SDS011;30789;52.030;7.110;2023-03-01T11:47:04;10.27;;;6.90;;
34960;SDS011;30789;52.030;7.110;2023-03-01T11:49:37;9.57;;;6.00;;
34960;SDS011;30789;52.030;7.110;2023-03-01T11:52:11;8.52;;;6.38;;
34960;SDS011;30789;52.030;7.110;2023-03-01T11:54:43;8.82;;;6.07;;
34960;SDS011;30789;52.030;7.110;2023-03-01T11:57:15;11.50;;;6.38;;
34960;SDS011;30789;52.030;7.110;2023-03-01T11:59:51;11.40;;;6.47;;
34960;SDS011;30789;52.030;7.110;2023-03-01T12:02:46;10.25;;;6.68;;
34960;SDS011;30789;52.030;7.110;2023-03-01T12:05:18;9.18;;;6.10;;
34960;SDS011;30789;52.030;7.110;2023-03-01T12:07:49;9.07;;;6.63;;
34960;SDS011;30789;52.030;7.110;2023-03-01T12:10:19;10.35;;;5.57;;
34960;SDS011;30789;52.030;7.110;2023-03-01T12:12:49;8.13;;;5.53;;
34960;SDS011;30789;52.030;7.110;2023-03-01T12:15:27;9.38;;;5.85;;
34960;SDS011;30789;52.030;7.110;2023-03-01T12:18:05;11.50;;;5.60;;
34960;SDS011;30789;52.030;7.110;2023-03-01T12:20:35;7.50;;;5.18;;
34960;SDS011;30789;52.030;7.110;2023-03-01T12:23:22;7.45;;;5.57;;
34960;SDS011;30789;52.030;7.110;2023-03-01T12:25:53;8.75;;;5.70;;
34960;SDS011;30789;52.030;7.110;2023-03-01T12:28:32;9.30;;;5.35;;
34960;SDS011;30789;52.030;7.110;2023-03-01T12:33:30;10.55;;;6.20;;
34960;SDS011;30789;52.030;7.110;2023-03-01T12:36:20;9.35;;;5.80;;
34960;SDS011;30789;52.030;7.110;2023-03-01T12:38:58;9.27;;;5.70;;
34960;SDS011;30789;52.030;7.110;2023-03-01T12:41:28;7.10;;;4.53;;
34960;SDS011;30789;52.030;7.110;2023-03-01T12:44:01;7.70;;;5.65;;
34960;SDS011;30789;52.030;7.110;2023-03-01T12:46:31;6.15;;;5.10;;
34960;SDS011;30789;52.030;7.110;2023-03-01T12:49:02;6.93;;;5.03;;
34960;SDS011;30789;52.030;7.110;2023-03-01T12:51:31;5.50;;;4.80;;
34960;SDS011;30789;52.030;7.110;2023-03-01T12:53:59;7.15;;;4.80;;
34960;SDS011;30789;52.030;7.110;2023-03-01T12:56:28;5.85;;;4.32;;
34960;SDS011;30789;52.030;7.110;2023-03-01T12:58:57;9.00;;;5.78;;
34960;SDS011;30789;52.030;7.110;2023-03-01T13:01:28;7.88;;;4.68;;
34960;SDS011;30789;52.030;7.110;2023-03-01T13:04:01;5.45;;;4.22;;
34960;SDS011;30789;52.030;7.110;2023-03-01T13:06:32;5.15;;;4.13;;
34960;SDS011;30789;52.030;7.110;2023-03-01T13:09:06;6.30;;;4.32;;
34960;SDS011;30789;52.030;7.110;2023-03-01T13:11:40;7.05;;;4.78;;
34960;SDS011;30789;52.030;7.110;2023-03-01T13:16:52;5.20;;;4.32;;
34960;SDS011;30789;52.030;7.110;2023-03-01T13:19:18;4.85;;;4.22;;
34960;SDS011;30789;52.030;7.110;2023-03-01T13:21:45;5.32;;;4.25;;
34960;SDS011;30789;52.030;7.110;2023-03-01T13:24:29;4.43;;;3.05;;
34960;SDS011;30789;52.030;7.110;2023-03-01T13:29:54;4.47;;;3.40;;
34960;SDS011;30789;52.030;7.110;2023-03-01T13:32:21;4.63;;;3.17;;
34960;SDS011;30789;52.030;7.110;2023-03-01T13:34:49;3.55;;;3.25;;
34960;SDS011;30789;52.030;7.110;2023-03-01T13:40:02;4.60;;;3.58;;
34960;SDS011;30789;52.030;7.110;2023-03-01T13:42:37;6.33;;;3.77;;
34960;SDS011;30789;52.030;7.110;2023-03-01T13:45:05;4.72;;;3.38;;
34960;SDS011;30789;52.030;7.110;2023-03-01T13:47:39;3.30;;;3.00;;
34960;SDS011;30789;52.030;7.110;2023-03-01T13:50:15;4.30;;;3.50;;
34960;SDS011;30789;52.030;7.110;2023-03-01T13:52:42;5.43;;;2.90;;
34960;SDS011;30789;52.030;7.110;2023-03-01T13:55:16;5.25;;;3.47;;
34960;SDS011;30789;52.030;7.110;2023-03-01T13:57:43;4.10;;;3.15;;
34960;SDS011;30789;52.030;7.110;2023-03-01T14:00:24;5.50;;;3.90;;
34960;SDS011;30789;52.030;7.110;2023-03-01T14:02:59;4.72;;;3.45;;
34960;SDS011;30789;52.030;7.110;2023-03-01T14:05:25;3.75;;;3.13;;
34960;SDS011;30789;52.030;7.110;2023-03-01T14:07:51;3.88;;;2.95;;
34960;SDS011;30789;52.030;7.110;2023-03-01T14:10:19;4.15;;;3.17;;
34960;SDS011;30789;52.030;7.110;2023-03-01T14:12:46;3.65;;;3.05;;
34960;SDS011;30789;52.030;7.110;2023-03-01T14:15:15;4.78;;;3.60;;
34960;SDS011;30789;52.030;7.110;2023-03-01T14:17:46;4.00;;;3.33;;
34960;SDS011;30789;52.030;7.110;2023-03-01T14:20:17;5.20;;;3.33;;
34960;SDS011;30789;52.030;7.110;2023-03-01T14:22:44;5.28;;;3.75;;
34960;SDS011;30789;52.030;7.110;2023-03-01T14:25:19;6.13;;;3.47;;
34960;SDS011;30789;52.030;7.110;2023-03-01T14:27:46;4.43;;;3.17;;
34960;SDS011;30789;52.030;7.110;2023-03-01T14:30:18;5.25;;;3.50;;
34960;SDS011;30789;52.030;7.110;2023-03-01T14:32:51;4.82;;;3.35;;
34960;SDS011;30789;52.030;7.110;2023-03-01T14:35:19;4.30;;;3.17;;
34960;SDS011;30789;52.030;7.110;2023-03-01T14:37:46;4.43;;;3.38;;
34960;SDS011;30789;52.030;7.110;2023-03-01T14:40:21;4.63;;;2.85;;
34960;SDS011;30789;52.030;7.110;2023-03-01T14:42:47;4.20;;;3.08;;
34960;SDS011;30789;52.030;7.110;2023-03-01T14:45:14;5.00;;;3.33;;
34960;SDS011;30789;52.030;7.110;2023-03-01T14:47:40;4.70;;;3.28;;
34960;SDS011;30789;52.030;7.110;2023-03-01T14:50:07;6.65;;;3.53;;
34960;SDS011;30789;52.030;7.110;2023-03-01T14:52:34;5.85;;;3.30;;
34960;SDS011;30789;52.030;7.110;2023-03-01T14:55:02;6.10;;;4.28;;
34960;SDS011;30789;52.030;7.110;2023-03-01T14:57:31;7.47;;;3.67;;
34960;SDS011;30789;52.030;7.110;2023-03-01T14:59:58;4.25;;;3.67;;
34960;SDS011;30789;52.030;7.110;2023-03-01T15:02:25;5.03;;;3.58;;
34960;SDS011;30789;52.030;7.110;2023-03-01T15:04:52;5.80;;;3.95;;